sensor_id;sensor_type;location;lat;lon;timestamp;pressure;altitude;pressure_sealevel;temperature;humidity
788;BME280;16074;42.708;23.312;2022-11-15T00:00:22;139670.25;;;5.63;100.00
788;BME280;16074;42.708;23.312;2022-11-15T00:03:09;139673.88;;;5.65;100.00
788;BME280;16074;42.708;23.312;2022-11-15T00:06:01;139663.06;;;5.60;100.00
788;BME280;16074;42.708;23.312;2022-11-15T00:08:48;139649.91;;;5.55;100.00
788;BME280;16074;42.708;23.312;2022-11-15T00:11:34;139631.88;;;5.47;100.00
788;BME280;16074;42.708;23.312;2022-11-15T00:14:21;139616.34;;;5.41;100.00
788;BME280;16074;42.708;23.312;2022-11-15T00:17:09;139621.13;;;5.43;100.00
788;BME280;16074;42.708;23.312;2022-11-15T00:19:56;139615.13;;;5.40;100.00
788;BME280;16074;42.708;23.312;2022-11-15T00:22:43;139615.13;;;5.40;100.00
788;BME280;16074;42.708;23.312;2022-11-15T00:25:30;139607.97;;;5.37;100.00
788;BME280;16074;42.708;23.312;2022-11-15T00:28:17;139611.53;;;5.39;100.00
788;BME280;16074;42.708;23.312;2022-11-15T00:31:05;139615.13;;;5.40;100.00
788;BME280;16074;42.708;23.312;2022-11-15T00:33:53;139619.91;;;5.42;100.00
788;BME280;16074;42.708;23.312;2022-11-15T00:36:40;139613.94;;;5.40;100.00
788;BME280;16074;42.708;23.312;2022-11-15T00:39:27;139605.56;;;5.36;100.00
788;BME280;16074;42.708;23.312;2022-11-15T00:42:13;139603.19;;;5.35;100.00
788;BME280;16074;42.708;23.312;2022-11-15T00:45:00;139595.97;;;5.32;100.00
788;BME280;16074;42.708;23.312;2022-11-15T00:47:47;139584.00;;;5.27;100.00
788;BME280;16074;42.708;23.312;2022-11-15T00:50:35;139551.63;;;5.14;100.00
788;BME280;16074;42.708;23.312;2022-11-15T00:53:22;139558.81;;;5.17;100.00
788;BME280;16074;42.708;23.312;2022-11-15T00:56:09;139560.03;;;5.17;100.00
788;BME280;16074;42.708;23.312;2022-11-15T00:58:56;139555.25;;;5.15;100.00
788;BME280;16074;42.708;23.312;2022-11-15T01:01:42;139544.44;;;5.11;100.00
788;BME280;16074;42.708;23.312;2022-11-15T01:04:29;139537.28;;;5.08;100.00
788;BME280;16074;42.708;23.312;2022-11-15T01:07:17;139516.91;;;4.99;100.00
788;BME280;16074;42.708;23.312;2022-11-15T01:10:05;139526.50;;;5.03;100.00
788;BME280;16074;42.708;23.312;2022-11-15T01:13:10;139533.69;;;5.06;100.00
788;BME280;16074;42.708;23.312;2022-11-15T01:15:57;139504.94;;;4.94;100.00
788;BME280;16074;42.708;23.312;2022-11-15T01:18:43;139508.53;;;4.96;100.00
788;BME280;16074;42.708;23.312;2022-11-15T01:21:32;139512.09;;;4.97;100.00
788;BME280;16074;42.708;23.312;2022-11-15T01:24:23;139519.31;;;5.00;100.00
788;BME280;16074;42.708;23.312;2022-11-15T01:27:09;139496.56;;;4.91;100.00
788;BME280;16074;42.708;23.312;2022-11-15T01:29:56;139489.38;;;4.88;100.00
788;BME280;16074;42.708;23.312;2022-11-15T01:32:43;139496.56;;;4.91;100.00
788;BME280;16074;42.708;23.312;2022-11-15T01:35:29;139497.75;;;4.91;100.00
788;BME280;16074;42.708;23.312;2022-11-15T01:38:16;139490.56;;;4.88;100.00
788;BME280;16074;42.708;23.312;2022-11-15T01:41:04;139471.44;;;4.80;100.00
788;BME280;16074;42.708;23.312;2022-11-15T01:43:53;139480.97;;;4.84;100.00
788;BME280;16074;42.708;23.312;2022-11-15T01:46:46;139472.59;;;4.81;100.00
788;BME280;16074;42.708;23.312;2022-11-15T01:49:35;139494.16;;;4.90;100.00
788;BME280;16074;42.708;23.312;2022-11-15T01:52:26;139491.78;;;4.89;100.00
788;BME280;16074;42.708;23.312;2022-11-15T01:55:16;139471.44;;;4.80;100.00
788;BME280;16074;42.708;23.312;2022-11-15T01:58:06;139473.81;;;4.81;100.00
788;BME280;16074;42.708;23.312;2022-11-15T02:00:53;139466.63;;;4.78;100.00
788;BME280;16074;42.708;23.312;2022-11-15T02:03:50;139458.22;;;4.75;100.00
788;BME280;16074;42.708;23.312;2022-11-15T02:06:56;139446.25;;;4.70;100.00
788;BME280;16074;42.708;23.312;2022-11-15T02:09:44;139423.53;;;4.61;100.00
788;BME280;16074;42.708;23.312;2022-11-15T02:12:31;139403.19;;;4.52;100.00
788;BME280;16074;42.708;23.312;2022-11-15T02:15:19;139405.59;;;4.53;100.00
788;BME280;16074;42.708;23.312;2022-11-15T02:18:11;139406.75;;;4.54;100.00
788;BME280;16074;42.708;23.312;2022-11-15T02:21:09;139381.63;;;4.43;100.00
788;BME280;16074;42.708;23.312;2022-11-15T02:24:13;139405.59;;;4.53;100.00
788;BME280;16074;42.708;23.312;2022-11-15T02:27:36;139411.56;;;4.56;100.00
788;BME280;16074;42.708;23.312;2022-11-15T02:30:37;139407.94;;;4.54;100.00
788;BME280;16074;42.708;23.312;2022-11-15T02:33:34;139424.69;;;4.61;100.00
788;BME280;16074;42.708;23.312;2022-11-15T02:36:32;139442.69;;;4.68;100.00
788;BME280;16074;42.708;23.312;2022-11-15T02:39:25;139452.28;;;4.72;100.00
788;BME280;16074;42.708;23.312;2022-11-15T02:42:16;139467.81;;;4.79;100.00
788;BME280;16074;42.708;23.312;2022-11-15T02:45:25;139475.00;;;4.82;100.00
788;BME280;16074;42.708;23.312;2022-11-15T02:48:15;139507.31;;;4.95;100.00
788;BME280;16074;42.708;23.312;2022-11-15T02:51:02;139522.91;;;5.02;100.00
788;BME280;16074;42.708;23.312;2022-11-15T02:53:49;139539.69;;;5.09;100.00
788;BME280;16074;42.708;23.312;2022-11-15T02:56:36;139555.25;;;5.15;100.00
788;BME280;16074;42.708;23.312;2022-11-15T03:02:43;139556.41;;;5.16;100.00
788;BME280;16074;42.708;23.312;2022-11-15T03:05:42;139570.78;;;5.22;100.00
788;BME280;16074;42.708;23.312;2022-11-15T03:08:32;139589.97;;;5.30;100.00
788;BME280;16074;42.708;23.312;2022-11-15T03:11:24;139604.34;;;5.36;100.00
788;BME280;16074;42.708;23.312;2022-11-15T03:14:19;139599.56;;;5.34;100.00
788;BME280;16074;42.708;23.312;2022-11-15T03:17:15;139613.94;;;5.40;100.00
788;BME280;16074;42.708;23.312;2022-11-15T03:20:06;139619.91;;;5.42;100.00
788;BME280;16074;42.708;23.312;2022-11-15T03:22:58;139624.69;;;5.44;100.00
788;BME280;16074;42.708;23.312;2022-11-15T03:25:48;139633.13;;;5.48;100.00
788;BME280;16074;42.708;23.312;2022-11-15T03:28:39;139634.28;;;5.48;100.00
788;BME280;16074;42.708;23.312;2022-11-15T03:31:31;139635.50;;;5.49;100.00
788;BME280;16074;42.708;23.312;2022-11-15T03:34:39;139621.13;;;5.43;100.00
788;BME280;16074;42.708;23.312;2022-11-15T03:37:31;139618.72;;;5.42;100.00
788;BME280;16074;42.708;23.312;2022-11-15T03:40:24;139595.97;;;5.32;100.00
788;BME280;16074;42.708;23.312;2022-11-15T03:43:22;139582.78;;;5.27;100.00
788;BME280;16074;42.708;23.312;2022-11-15T03:46:13;139555.25;;;5.15;100.00
788;BME280;16074;42.708;23.312;2022-11-15T03:49:05;139554.03;;;5.15;100.00
788;BME280;16074;42.708;23.312;2022-11-15T03:51:56;139554.03;;;5.15;100.00
788;BME280;16074;42.708;23.312;2022-11-15T03:54:49;139543.25;;;5.10;100.00
788;BME280;16074;42.708;23.312;2022-11-15T03:57:37;139540.88;;;5.09;100.00
788;BME280;16074;42.708;23.312;2022-11-15T04:00:24;139532.50;;;5.06;100.00
788;BME280;16074;42.708;23.312;2022-11-15T04:03:11;139533.69;;;5.06;100.00
788;BME280;16074;42.708;23.312;2022-11-15T04:05:57;139540.88;;;5.09;100.00
788;BME280;16074;42.708;23.312;2022-11-15T04:08:44;139544.44;;;5.11;100.00
788;BME280;16074;42.708;23.312;2022-11-15T04:11:31;139551.63;;;5.14;100.00
788;BME280;16074;42.708;23.312;2022-11-15T04:14:19;139550.44;;;5.13;100.00
788;BME280;16074;42.708;23.312;2022-11-15T04:17:06;139561.22;;;5.18;100.00
788;BME280;16074;42.708;23.312;2022-11-15T04:19:53;139570.78;;;5.22;100.00
788;BME280;16074;42.708;23.312;2022-11-15T04:22:58;139587.56;;;5.29;100.00
788;BME280;16074;42.708;23.312;2022-11-15T04:26:05;139581.59;;;5.26;100.00
788;BME280;16074;42.708;23.312;2022-11-15T04:28:53;139594.75;;;5.32;100.00
788;BME280;16074;42.708;23.312;2022-11-15T04:31:58;139594.75;;;5.32;100.00
788;BME280;16074;42.708;23.312;2022-11-15T04:34:44;139597.16;;;5.33;100.00
788;BME280;16074;42.708;23.312;2022-11-15T04:37:31;139607.97;;;5.37;100.00
788;BME280;16074;42.708;23.312;2022-11-15T04:40:18;139603.19;;;5.35;100.00
788;BME280;16074;42.708;23.312;2022-11-15T04:43:05;139617.50;;;5.41;100.00
788;BME280;16074;42.708;23.312;2022-11-15T04:45:52;139609.16;;;5.38;100.00
788;BME280;16074;42.708;23.312;2022-11-15T04:48:40;139616.34;;;5.41;100.00
788;BME280;16074;42.708;23.312;2022-11-15T04:51:26;139631.88;;;5.47;100.00
788;BME280;16074;42.708;23.312;2022-11-15T04:54:13;139631.88;;;5.47;100.00
788;BME280;16074;42.708;23.312;2022-11-15T04:57:00;139630.72;;;5.47;100.00
788;BME280;16074;42.708;23.312;2022-11-15T04:59:47;139636.69;;;5.49;100.00
788;BME280;16074;42.708;23.312;2022-11-15T05:02:34;139637.91;;;5.50;100.00
788;BME280;16074;42.708;23.312;2022-11-15T05:05:39;139641.47;;;5.51;100.00
788;BME280;16074;42.708;23.312;2022-11-15T05:08:26;139664.28;;;5.61;100.00
788;BME280;16074;42.708;23.312;2022-11-15T05:11:12;139657.09;;;5.58;100.00
788;BME280;16074;42.708;23.312;2022-11-15T05:13:59;139647.50;;;5.54;100.00
788;BME280;16074;42.708;23.312;2022-11-15T05:16:46;139622.31;;;5.43;100.00
788;BME280;16074;42.708;23.312;2022-11-15T05:19:32;139634.28;;;5.48;100.00
788;BME280;16074;42.708;23.312;2022-11-15T05:22:23;139634.28;;;5.48;100.00
788;BME280;16074;42.708;23.312;2022-11-15T05:25:10;139621.13;;;5.43;100.00
788;BME280;16074;42.708;23.312;2022-11-15T05:27:56;139622.31;;;5.43;100.00
788;BME280;16074;42.708;23.312;2022-11-15T05:30:43;139621.13;;;5.43;100.00
788;BME280;16074;42.708;23.312;2022-11-15T05:33:30;139595.97;;;5.32;100.00
788;BME280;16074;42.708;23.312;2022-11-15T05:36:21;139600.78;;;5.34;100.00
788;BME280;16074;42.708;23.312;2022-11-15T05:39:12;139618.72;;;5.42;100.00
788;BME280;16074;42.708;23.312;2022-11-15T05:42:02;139619.91;;;5.42;100.00
788;BME280;16074;42.708;23.312;2022-11-15T05:44:50;139624.69;;;5.44;100.00
788;BME280;16074;42.708;23.312;2022-11-15T05:47:37;139628.31;;;5.46;100.00
788;BME280;16074;42.708;23.312;2022-11-15T05:50:25;139628.31;;;5.46;100.00
788;BME280;16074;42.708;23.312;2022-11-15T05:53:14;139651.06;;;5.55;100.00
788;BME280;16074;42.708;23.312;2022-11-15T05:56:04;139658.25;;;5.58;100.00
788;BME280;16074;42.708;23.312;2022-11-15T05:58:52;139660.66;;;5.59;100.00
788;BME280;16074;42.708;23.312;2022-11-15T06:01:44;139652.28;;;5.56;100.00
788;BME280;16074;42.708;23.312;2022-11-15T06:04:31;139630.72;;;5.47;100.00
788;BME280;16074;42.708;23.312;2022-11-15T06:07:17;139648.69;;;5.54;100.00
788;BME280;16074;42.708;23.312;2022-11-15T06:10:05;139658.25;;;5.58;100.00
788;BME280;16074;42.708;23.312;2022-11-15T06:12:57;139660.66;;;5.59;100.00
788;BME280;16074;42.708;23.312;2022-11-15T06:15:44;139670.25;;;5.63;100.00
788;BME280;16074;42.708;23.312;2022-11-15T06:18:32;139684.63;;;5.69;100.00
788;BME280;16074;42.708;23.312;2022-11-15T06:21:19;139709.84;;;5.80;100.00
788;BME280;16074;42.708;23.312;2022-11-15T06:24:06;139701.41;;;5.76;100.00
788;BME280;16074;42.708;23.312;2022-11-15T06:26:53;139699.03;;;5.75;100.00
788;BME280;16074;42.708;23.312;2022-11-15T06:29:41;139717.03;;;5.83;100.00
788;BME280;16074;42.708;23.312;2022-11-15T06:32:29;139706.25;;;5.78;100.00
788;BME280;16074;42.708;23.312;2022-11-15T06:35:16;139731.41;;;5.88;100.00
788;BME280;16074;42.708;23.312;2022-11-15T06:38:04;139756.56;;;5.99;100.00
788;BME280;16074;42.708;23.312;2022-11-15T06:40:51;139774.59;;;6.06;100.00
788;BME280;16074;42.708;23.312;2022-11-15T06:43:38;139794.94;;;6.15;100.00
788;BME280;16074;42.708;23.312;2022-11-15T06:46:26;139788.97;;;6.12;100.00
788;BME280;16074;42.708;23.312;2022-11-15T06:49:13;139809.34;;;6.21;100.00
788;BME280;16074;42.708;23.312;2022-11-15T06:52:00;139827.31;;;6.28;100.00
788;BME280;16074;42.708;23.312;2022-11-15T06:54:47;139838.13;;;6.33;100.00
788;BME280;16074;42.708;23.312;2022-11-15T06:57:33;139853.69;;;6.39;100.00
788;BME280;16074;42.708;23.312;2022-11-15T07:00:21;139868.09;;;6.45;100.00
788;BME280;16074;42.708;23.312;2022-11-15T07:03:10;139887.28;;;6.53;100.00
788;BME280;16074;42.708;23.312;2022-11-15T07:05:57;139901.69;;;6.59;100.00
788;BME280;16074;42.708;23.312;2022-11-15T07:08:51;139906.50;;;6.61;100.00
788;BME280;16074;42.708;23.312;2022-11-15T07:11:38;139907.66;;;6.62;100.00
788;BME280;16074;42.708;23.312;2022-11-15T07:14:25;139925.69;;;6.69;100.00
788;BME280;16074;42.708;23.312;2022-11-15T07:17:11;139937.69;;;6.74;100.00
788;BME280;16074;42.708;23.312;2022-11-15T07:19:59;139926.88;;;6.70;100.00
788;BME280;16074;42.708;23.312;2022-11-15T07:22:46;139936.47;;;6.74;100.00
788;BME280;16074;42.708;23.312;2022-11-15T07:25:32;139934.06;;;6.73;100.00
788;BME280;16074;42.708;23.312;2022-11-15T07:28:20;139946.06;;;6.78;100.00
788;BME280;16074;42.708;23.312;2022-11-15T07:31:08;139937.69;;;6.74;100.00
788;BME280;16074;42.708;23.312;2022-11-15T07:33:55;139941.28;;;6.76;100.00
788;BME280;16074;42.708;23.312;2022-11-15T07:36:43;139948.47;;;6.79;100.00
788;BME280;16074;42.708;23.312;2022-11-15T07:39:29;139950.88;;;6.80;100.00
788;BME280;16074;42.708;23.312;2022-11-15T07:42:16;139982.06;;;6.93;100.00
788;BME280;16074;42.708;23.312;2022-11-15T07:45:20;139988.06;;;6.95;100.00
788;BME280;16074;42.708;23.312;2022-11-15T07:48:07;139997.66;;;6.99;100.00
788;BME280;16074;42.708;23.312;2022-11-15T07:50:54;140004.84;;;7.02;100.00
788;BME280;16074;42.708;23.312;2022-11-15T07:53:42;140012.06;;;7.05;100.00
788;BME280;16074;42.708;23.312;2022-11-15T07:56:29;139989.28;;;6.96;100.00
788;BME280;16074;42.708;23.312;2022-11-15T07:59:16;140028.88;;;7.12;100.00
788;BME280;16074;42.708;23.312;2022-11-15T08:02:02;140036.06;;;7.15;100.00
788;BME280;16074;42.708;23.312;2022-11-15T08:04:49;140052.88;;;7.22;100.00
788;BME280;16074;42.708;23.312;2022-11-15T08:07:36;140051.66;;;7.21;100.00
788;BME280;16074;42.708;23.312;2022-11-15T08:10:25;140040.88;;;7.17;100.00
788;BME280;16074;42.708;23.312;2022-11-15T08:13:12;140050.47;;;7.21;99.48
788;BME280;16074;42.708;23.312;2022-11-15T08:15:59;140038.47;;;7.16;99.71
788;BME280;16074;42.708;23.312;2022-11-15T08:18:47;140031.28;;;7.13;100.00
788;BME280;16074;42.708;23.312;2022-11-15T08:21:34;140016.88;;;7.07;100.00
788;BME280;16074;42.708;23.312;2022-11-15T08:24:21;140015.69;;;7.07;100.00
788;BME280;16074;42.708;23.312;2022-11-15T08:27:09;140028.88;;;7.12;100.00
788;BME280;16074;42.708;23.312;2022-11-15T08:30:00;140016.88;;;7.07;100.00
788;BME280;16074;42.708;23.312;2022-11-15T08:32:48;140030.03;;;7.12;100.00
788;BME280;16074;42.708;23.312;2022-11-15T08:35:34;140021.66;;;7.09;100.00
788;BME280;16074;42.708;23.312;2022-11-15T08:38:21;140038.47;;;7.16;100.00
788;BME280;16074;42.708;23.312;2022-11-15T08:41:12;140069.69;;;7.29;100.00
788;BME280;16074;42.708;23.312;2022-11-15T08:44:01;140087.69;;;7.36;100.00
788;BME280;16074;42.708;23.312;2022-11-15T08:46:48;140085.28;;;7.35;100.00
788;BME280;16074;42.708;23.312;2022-11-15T08:49:35;140105.66;;;7.44;100.00
788;BME280;16074;42.708;23.312;2022-11-15T08:52:21;140134.50;;;7.56;100.00
788;BME280;16074;42.708;23.312;2022-11-15T08:55:08;140162.09;;;7.67;99.55
788;BME280;16074;42.708;23.312;2022-11-15T08:57:56;140163.31;;;7.68;97.72
788;BME280;16074;42.708;23.312;2022-11-15T09:00:44;140146.50;;;7.61;97.00
788;BME280;16074;42.708;23.312;2022-11-15T09:03:31;140154.94;;;7.64;97.01
788;BME280;16074;42.708;23.312;2022-11-15T09:06:18;140163.31;;;7.68;97.04
788;BME280;16074;42.708;23.312;2022-11-15T09:09:05;140199.34;;;7.83;96.97
788;BME280;16074;42.708;23.312;2022-11-15T09:11:51;140223.38;;;7.93;95.86
788;BME280;16074;42.708;23.312;2022-11-15T09:14:45;140214.94;;;7.89;95.35
788;BME280;16074;42.708;23.312;2022-11-15T09:17:33;140208.97;;;7.87;95.60
788;BME280;16074;42.708;23.312;2022-11-15T09:20:20;140234.16;;;7.97;95.24
788;BME280;16074;42.708;23.312;2022-11-15T09:23:07;140263.00;;;8.09;94.68
788;BME280;16074;42.708;23.312;2022-11-15T09:25:58;140263.00;;;8.09;94.68
788;BME280;16074;42.708;23.312;2022-11-15T09:28:45;140288.25;;;8.20;93.64
788;BME280;16074;42.708;23.312;2022-11-15T09:31:31;140300.28;;;8.25;93.21
788;BME280;16074;42.708;23.312;2022-11-15T09:34:20;140318.28;;;8.32;93.19
788;BME280;16074;42.708;23.312;2022-11-15T09:37:07;140263.00;;;8.09;92.57
788;BME280;16074;42.708;23.312;2022-11-15T09:39:53;140307.50;;;8.27;92.40
788;BME280;16074;42.708;23.312;2022-11-15T09:42:57;140333.94;;;8.38;91.37
788;BME280;16074;42.708;23.312;2022-11-15T09:45:55;140333.94;;;8.38;92.12
788;BME280;16074;42.708;23.312;2022-11-15T09:49:03;140336.34;;;8.39;91.63
788;BME280;16074;42.708;23.312;2022-11-15T09:51:44;140297.88;;;8.24;91.25
788;BME280;16074;42.708;23.312;2022-11-15T09:54:23;140307.50;;;8.27;91.84
788;BME280;16074;42.708;23.312;2022-11-15T09:57:15;140317.09;;;8.31;92.25
788;BME280;16074;42.708;23.312;2022-11-15T09:59:54;140312.31;;;8.29;91.56
788;BME280;16074;42.708;23.312;2022-11-15T10:02:58;140242.56;;;8.01;92.34
788;BME280;16074;42.708;23.312;2022-11-15T10:05:31;140192.16;;;7.80;94.95
788;BME280;16074;42.708;23.312;2022-11-15T10:08:13;140266.59;;;8.11;94.52
788;BME280;16074;42.708;23.312;2022-11-15T10:10:52;140265.41;;;8.10;94.54
788;BME280;16074;42.708;23.312;2022-11-15T10:13:44;140295.47;;;8.23;93.52
788;BME280;16074;42.708;23.312;2022-11-15T10:19:09;140419.28;;;8.74;91.14
788;BME280;16074;42.708;23.312;2022-11-15T10:21:46;140467.31;;;8.94;91.35
788;BME280;16074;42.708;23.312;2022-11-15T10:24:25;140535.84;;;9.22;89.90
788;BME280;16074;42.708;23.312;2022-11-15T10:26:55;140606.81;;;9.51;88.33
788;BME280;16074;42.708;23.312;2022-11-15T10:29:24;140699.47;;;9.90;86.52
788;BME280;16074;42.708;23.312;2022-11-15T10:31:53;140803.00;;;10.33;85.58
788;BME280;16074;42.708;23.312;2022-11-15T10:34:23;140921.00;;;10.81;81.60
788;BME280;16074;42.708;23.312;2022-11-15T10:36:55;141007.75;;;11.17;78.31
788;BME280;16074;42.708;23.312;2022-11-15T10:39:25;141072.81;;;11.44;76.06
788;BME280;16074;42.708;23.312;2022-11-15T10:41:54;141187.38;;;11.91;75.14
788;BME280;16074;42.708;23.312;2022-11-15T10:44:26;141273.00;;;12.27;71.34
788;BME280;16074;42.708;23.312;2022-11-15T10:47:29;141368.28;;;12.66;69.82
788;BME280;16074;42.708;23.312;2022-11-15T10:50:07;141447.97;;;12.99;67.34
788;BME280;16074;42.708;23.312;2022-11-15T10:52:53;141532.44;;;13.34;65.54
788;BME280;16074;42.708;23.312;2022-11-15T10:55:26;141597.66;;;13.61;64.21
788;BME280;16074;42.708;23.312;2022-11-15T10:58:02;141638.72;;;13.78;62.75
788;BME280;16074;42.708;23.312;2022-11-15T11:00:33;141659.22;;;13.86;62.56
788;BME280;16074;42.708;23.312;2022-11-15T11:03:04;141671.31;;;13.91;61.84
788;BME280;16074;42.708;23.312;2022-11-15T11:05:35;141737.81;;;14.19;60.77
788;BME280;16074;42.708;23.312;2022-11-15T11:08:21;141723.25;;;14.13;60.87
788;BME280;16074;42.708;23.312;2022-11-15T11:10:56;141775.25;;;14.34;59.83
788;BME280;16074;42.708;23.312;2022-11-15T11:13:30;141816.34;;;14.51;59.58
788;BME280;16074;42.708;23.312;2022-11-15T11:18:58;141957.75;;;15.09;57.49
788;BME280;16074;42.708;23.312;2022-11-15T11:21:39;142007.41;;;15.30;56.58
788;BME280;16074;42.708;23.312;2022-11-15T11:24:14;142019.47;;;15.35;55.24
788;BME280;16074;42.708;23.312;2022-11-15T11:26:58;142027.97;;;15.38;55.60
788;BME280;16074;42.708;23.312;2022-11-15T11:29:44;141968.66;;;15.14;55.45
788;BME280;16074;42.708;23.312;2022-11-15T11:32:26;141979.53;;;15.18;55.57
788;BME280;16074;42.708;23.312;2022-11-15T11:35:03;141959.00;;;15.10;55.63
788;BME280;16074;42.708;23.312;2022-11-15T11:37:41;141938.44;;;15.01;56.02
788;BME280;16074;42.708;23.312;2022-11-15T11:40:27;141996.47;;;15.25;55.51
788;BME280;16074;42.708;23.312;2022-11-15T11:43:04;142009.78;;;15.31;55.18
788;BME280;16074;42.708;23.312;2022-11-15T11:45:52;142047.31;;;15.46;55.37
788;BME280;16074;42.708;23.312;2022-11-15T11:48:38;142058.19;;;15.51;54.72
788;BME280;16074;42.708;23.312;2022-11-15T11:51:13;142104.16;;;15.69;53.67
788;BME280;16074;42.708;23.312;2022-11-15T11:53:49;142127.16;;;15.79;53.41
788;BME280;16074;42.708;23.312;2022-11-15T11:56:25;142090.84;;;15.64;53.64
788;BME280;16074;42.708;23.312;2022-11-15T11:59:00;142094.50;;;15.65;54.04
788;BME280;16074;42.708;23.312;2022-11-15T12:01:32;142102.94;;;15.69;53.47
788;BME280;16074;42.708;23.312;2022-11-15T12:04:09;142096.91;;;15.66;53.73
788;BME280;16074;42.708;23.312;2022-11-15T12:06:44;142099.34;;;15.67;54.28
788;BME280;16074;42.708;23.312;2022-11-15T12:09:17;142128.38;;;15.79;52.94
788;BME280;16074;42.708;23.312;2022-11-15T12:11:51;142127.16;;;15.79;53.12
788;BME280;16074;42.708;23.312;2022-11-15T12:14:32;142113.84;;;15.73;53.10
788;BME280;16074;42.708;23.312;2022-11-15T12:17:02;142084.81;;;15.61;53.65
788;BME280;16074;42.708;23.312;2022-11-15T12:19:30;142054.59;;;15.49;53.97
788;BME280;16074;42.708;23.312;2022-11-15T12:22:03;142088.41;;;15.63;53.88
788;BME280;16074;42.708;23.312;2022-11-15T12:24:37;142053.34;;;15.49;54.21
788;BME280;16074;42.708;23.312;2022-11-15T12:27:14;142048.50;;;15.47;54.67
788;BME280;16074;42.708;23.312;2022-11-15T12:29:56;142079.97;;;15.59;54.09
788;BME280;16074;42.708;23.312;2022-11-15T12:32:28;142109.00;;;15.71;53.84
788;BME280;16074;42.708;23.312;2022-11-15T12:34:58;142128.38;;;15.79;53.52
788;BME280;16074;42.708;23.312;2022-11-15T12:37:49;142177.97;;;16.00;52.85
788;BME280;16074;42.708;23.312;2022-11-15T12:40:33;142157.38;;;15.91;52.70
788;BME280;16074;42.708;23.312;2022-11-15T12:46:06;142180.41;;;16.01;52.87
788;BME280;16074;42.708;23.312;2022-11-15T12:48:56;142146.50;;;15.87;52.84
788;BME280;16074;42.708;23.312;2022-11-15T12:55:08;142146.50;;;15.87;53.29
788;BME280;16074;42.708;23.312;2022-11-15T12:58:26;142175.56;;;15.99;53.18
788;BME280;16074;42.708;23.312;2022-11-15T13:00:56;142181.59;;;16.01;53.26
788;BME280;16074;42.708;23.312;2022-11-15T13:03:27;142170.72;;;15.97;53.35
788;BME280;16074;42.708;23.312;2022-11-15T13:08:58;142181.59;;;16.01;53.11
788;BME280;16074;42.708;23.312;2022-11-15T13:11:47;142156.19;;;15.91;53.71
788;BME280;16074;42.708;23.312;2022-11-15T13:14:44;142164.63;;;15.94;53.83
788;BME280;16074;42.708;23.312;2022-11-15T13:17:23;142173.13;;;15.98;53.46
788;BME280;16074;42.708;23.312;2022-11-15T13:20:01;142144.09;;;15.86;54.01
788;BME280;16074;42.708;23.312;2022-11-15T13:22:38;142145.28;;;15.86;53.86
788;BME280;16074;42.708;23.312;2022-11-15T13:28:11;142144.09;;;15.86;53.75
788;BME280;16074;42.708;23.312;2022-11-15T13:30:49;142146.50;;;15.87;53.81
788;BME280;16074;42.708;23.312;2022-11-15T13:33:20;142139.25;;;15.84;54.28
788;BME280;16074;42.708;23.312;2022-11-15T13:35:51;142101.75;;;15.68;54.33
788;BME280;16074;42.708;23.312;2022-11-15T13:38:27;142083.56;;;15.61;54.58
788;BME280;16074;42.708;23.312;2022-11-15T13:40:57;142052.16;;;15.48;54.53
788;BME280;16074;42.708;23.312;2022-11-15T13:43:34;142017.06;;;15.34;55.43
788;BME280;16074;42.708;23.312;2022-11-15T13:46:09;141991.63;;;15.23;55.92
788;BME280;16074;42.708;23.312;2022-11-15T13:48:38;141968.66;;;15.14;56.06
788;BME280;16074;42.708;23.312;2022-11-15T13:51:12;141934.78;;;15.00;56.51
788;BME280;16074;42.708;23.312;2022-11-15T13:53:46;141907.00;;;14.88;56.80
788;BME280;16074;42.708;23.312;2022-11-15T13:56:18;141885.25;;;14.79;57.29
788;BME280;16074;42.708;23.312;2022-11-15T13:58:48;141857.44;;;14.68;57.27
788;BME280;16074;42.708;23.312;2022-11-15T14:01:18;141835.69;;;14.59;57.89
788;BME280;16074;42.708;23.312;2022-11-15T14:03:51;141787.34;;;14.39;59.05
788;BME280;16074;42.708;23.312;2022-11-15T14:06:23;141764.38;;;14.30;59.31
788;BME280;16074;42.708;23.312;2022-11-15T14:09:02;141749.88;;;14.24;59.50
788;BME280;16074;42.708;23.312;2022-11-15T14:11:30;141735.38;;;14.18;59.71
788;BME280;16074;42.708;23.312;2022-11-15T14:14:11;141716.00;;;14.10;60.36
788;BME280;16074;42.708;23.312;2022-11-15T14:16:43;141709.97;;;14.07;60.50
788;BME280;16074;42.708;23.312;2022-11-15T14:22:16;141672.50;;;13.92;61.21
788;BME280;16074;42.708;23.312;2022-11-15T14:25:04;141659.22;;;13.86;61.14
788;BME280;16074;42.708;23.312;2022-11-15T14:27:33;141635.06;;;13.76;61.83
788;BME280;16074;42.708;23.312;2022-11-15T14:30:02;141542.09;;;13.38;63.10
788;BME280;16074;42.708;23.312;2022-11-15T14:32:41;141524.00;;;13.30;63.76
788;BME280;16074;42.708;23.312;2022-11-15T14:35:14;141479.34;;;13.12;64.52
788;BME280;16074;42.708;23.312;2022-11-15T14:37:45;141451.59;;;13.01;64.75
788;BME280;16074;42.708;23.312;2022-11-15T14:40:16;141373.13;;;12.68;66.17
788;BME280;16074;42.708;23.312;2022-11-15T14:42:47;141338.09;;;12.54;67.12
788;BME280;16074;42.708;23.312;2022-11-15T14:45:16;141317.59;;;12.45;67.38
788;BME280;16074;42.708;23.312;2022-11-15T14:47:45;141273.00;;;12.27;68.24
788;BME280;16074;42.708;23.312;2022-11-15T14:50:16;141194.59;;;11.94;70.00
788;BME280;16074;42.708;23.312;2022-11-15T14:52:46;141168.06;;;11.84;70.69
788;BME280;16074;42.708;23.312;2022-11-15T14:55:18;141123.47;;;11.65;71.38
788;BME280;16074;42.708;23.312;2022-11-15T14:57:48;141082.44;;;11.48;72.28
788;BME280;16074;42.708;23.312;2022-11-15T15:00:17;141063.16;;;11.40;72.36